createdAt,value
2022-12-20T00:00:22.116Z,3.83
2022-12-20T00:02:48.257Z,3.47
2022-12-20T00:05:14.432Z,3.38
2022-12-20T00:07:40.563Z,3.65
2022-12-20T00:10:06.705Z,3.45
2022-12-20T00:12:32.812Z,3.22
2022-12-20T00:14:58.950Z,3.47
2022-12-20T00:17:25.106Z,4.25
2022-12-20T00:19:51.316Z,3.45
2022-12-20T00:22:17.478Z,3.55
2022-12-20T00:24:43.615Z,4.00
2022-12-20T00:27:09.756Z,3.53
2022-12-20T00:29:35.895Z,2.72
2022-12-20T00:32:02.157Z,3.08
2022-12-20T00:34:28.404Z,2.58
2022-12-20T00:36:54.540Z,3.40
2022-12-20T00:39:20.655Z,2.70
2022-12-20T00:41:46.779Z,3.17
2022-12-20T00:44:12.897Z,3.15
2022-12-20T00:46:39.095Z,2.72
2022-12-20T00:49:05.284Z,2.72
2022-12-20T00:51:31.437Z,2.72
2022-12-20T00:53:57.589Z,2.65
2022-12-20T00:56:23.726Z,2.63
2022-12-20T00:58:52.200Z,2.70
2022-12-20T01:01:18.391Z,2.70
2022-12-20T01:03:44.655Z,2.40
2022-12-20T01:06:10.838Z,2.38
2022-12-20T01:08:36.978Z,2.15
2022-12-20T01:11:03.182Z,2.15
2022-12-20T01:13:29.291Z,1.90
2022-12-20T01:15:55.468Z,2.60
2022-12-20T01:18:21.609Z,2.17
2022-12-20T01:20:47.719Z,2.20
2022-12-20T01:23:13.865Z,2.17
2022-12-20T01:25:39.982Z,2.45
2022-12-20T01:28:06.132Z,2.13
2022-12-20T01:30:32.274Z,1.90
2022-12-20T01:32:58.435Z,2.30
2022-12-20T01:35:24.536Z,1.77
2022-12-20T01:37:50.663Z,2.38
2022-12-20T01:40:16.788Z,1.92
2022-12-20T01:42:42.916Z,1.70
2022-12-20T01:45:09.075Z,2.15
2022-12-20T01:47:35.203Z,2.03
2022-12-20T01:50:01.319Z,2.28
2022-12-20T01:52:27.445Z,2.33
2022-12-20T01:54:53.560Z,2.30
2022-12-20T01:57:19.678Z,2.00
2022-12-20T01:59:45.837Z,2.10
2022-12-20T02:02:12.194Z,2.00
2022-12-20T02:04:38.489Z,1.85
2022-12-20T02:07:04.600Z,2.00
2022-12-20T02:09:30.710Z,1.65
2022-12-20T02:11:56.817Z,1.65
2022-12-20T02:14:22.945Z,1.88
2022-12-20T02:16:49.151Z,1.73
2022-12-20T02:19:15.283Z,2.17
2022-12-20T02:21:41.378Z,2.10
2022-12-20T02:24:07.497Z,2.00
2022-12-20T02:26:33.612Z,2.15
2022-12-20T02:29:01.924Z,1.70
2022-12-20T02:31:28.085Z,1.70
2022-12-20T02:33:54.306Z,2.15
2022-12-20T02:36:20.439Z,2.20
2022-12-20T02:38:46.617Z,1.60
2022-12-20T02:41:12.738Z,1.50
2022-12-20T02:43:38.941Z,1.60
2022-12-20T02:46:05.135Z,1.60
2022-12-20T02:48:31.259Z,1.90
2022-12-20T02:50:57.416Z,1.80
2022-12-20T02:53:23.561Z,1.50
2022-12-20T02:55:49.689Z,1.48
2022-12-20T02:58:15.782Z,1.25
2022-12-20T03:00:41.894Z,1.33
2022-12-20T03:03:08.140Z,1.17
2022-12-20T03:05:34.463Z,1.02
2022-12-20T03:08:00.616Z,1.23
2022-12-20T03:10:26.751Z,1.10
2022-12-20T03:12:52.871Z,1.30
2022-12-20T03:15:19.024Z,1.00
2022-12-20T03:17:45.148Z,1.42
2022-12-20T03:20:11.262Z,1.35
2022-12-20T03:22:37.380Z,1.42
2022-12-20T03:25:03.517Z,1.50
2022-12-20T03:27:29.627Z,1.58
2022-12-20T03:29:55.733Z,1.35
2022-12-20T03:32:21.849Z,1.30
2022-12-20T03:34:47.979Z,0.98
2022-12-20T03:37:14.077Z,1.02
2022-12-20T03:39:40.194Z,1.15
2022-12-20T03:42:06.323Z,1.17
2022-12-20T03:44:32.473Z,1.33
2022-12-20T03:46:58.658Z,1.38
2022-12-20T03:49:24.760Z,1.27
2022-12-20T03:51:50.896Z,1.85
2022-12-20T03:54:17.008Z,1.52
2022-12-20T03:56:43.216Z,1.60
2022-12-20T03:59:09.319Z,1.42
2022-12-20T04:01:35.539Z,1.38
2022-12-20T04:04:01.854Z,1.58
2022-12-20T04:06:28.001Z,1.60
2022-12-20T04:08:54.121Z,1.15
2022-12-20T04:11:20.239Z,1.40
2022-12-20T04:13:46.350Z,1.70
2022-12-20T04:16:12.517Z,1.48
2022-12-20T04:18:38.747Z,1.38
2022-12-20T04:21:04.850Z,1.48
2022-12-20T04:23:30.975Z,1.33
2022-12-20T04:25:57.086Z,1.67
2022-12-20T04:28:23.224Z,1.75
2022-12-20T04:30:49.367Z,1.70
2022-12-20T04:33:15.527Z,1.70
2022-12-20T04:35:41.781Z,1.80
2022-12-20T04:38:07.932Z,1.73
2022-12-20T04:40:34.049Z,1.40
2022-12-20T04:43:00.170Z,1.50
2022-12-20T04:45:26.285Z,1.75
2022-12-20T04:47:52.422Z,1.63
2022-12-20T04:50:18.566Z,1.50
2022-12-20T04:52:47.858Z,1.60
2022-12-20T04:55:14.493Z,1.70
2022-12-20T04:57:40.607Z,1.50
2022-12-20T05:00:06.711Z,1.45
2022-12-20T05:02:32.996Z,2.05
2022-12-20T05:04:59.230Z,1.80
2022-12-20T05:07:25.360Z,1.63
2022-12-20T05:09:51.468Z,1.60
2022-12-20T05:12:17.600Z,1.75
2022-12-20T05:14:43.720Z,1.40
2022-12-20T05:17:09.859Z,1.95
2022-12-20T05:19:35.967Z,1.70
2022-12-20T05:22:02.073Z,1.85
2022-12-20T05:24:28.207Z,1.80
2022-12-20T05:26:54.325Z,1.45
2022-12-20T05:29:20.477Z,1.50
2022-12-20T05:31:46.648Z,1.48
2022-12-20T05:34:12.909Z,1.38
2022-12-20T05:36:39.013Z,1.75
2022-12-20T05:39:05.150Z,1.33
2022-12-20T05:41:31.260Z,1.42
2022-12-20T05:43:57.408Z,1.13
2022-12-20T05:46:23.637Z,1.30
2022-12-20T05:48:49.917Z,1.35
2022-12-20T05:51:16.018Z,1.60
2022-12-20T05:53:42.154Z,1.50
2022-12-20T05:56:08.288Z,1.70
2022-12-20T05:58:34.397Z,2.20
2022-12-20T06:01:00.496Z,1.23
2022-12-20T06:03:26.719Z,1.60
2022-12-20T06:05:52.985Z,1.63
2022-12-20T06:08:19.103Z,1.40
2022-12-20T06:10:45.260Z,1.83
2022-12-20T06:13:11.375Z,1.65
2022-12-20T06:15:37.499Z,1.27
2022-12-20T06:18:03.615Z,1.50
2022-12-20T06:20:29.739Z,1.90
2022-12-20T06:22:55.851Z,1.63
2022-12-20T06:25:21.987Z,2.03
2022-12-20T06:27:48.113Z,1.30
2022-12-20T06:30:14.255Z,1.98
2022-12-20T06:32:40.379Z,1.50
2022-12-20T06:35:06.519Z,1.95
2022-12-20T06:37:32.633Z,2.10
2022-12-20T06:39:58.763Z,1.73
2022-12-20T06:42:24.867Z,2.10
2022-12-20T06:44:51.015Z,1.77
2022-12-20T06:47:17.115Z,1.58
2022-12-20T06:49:43.278Z,1.48
2022-12-20T06:52:09.380Z,1.75
2022-12-20T06:54:35.536Z,2.25
2022-12-20T06:57:01.696Z,1.48
2022-12-20T06:59:27.844Z,1.95
2022-12-20T07:01:54.157Z,1.50
2022-12-20T07:04:20.450Z,3.17
2022-12-20T07:06:46.581Z,1.80
2022-12-20T07:09:12.698Z,1.30
2022-12-20T07:11:38.857Z,2.03
2022-12-20T07:14:05.025Z,2.25
2022-12-20T07:16:31.157Z,1.60
2022-12-20T07:18:57.319Z,1.60
2022-12-20T07:21:23.470Z,2.25
2022-12-20T07:23:49.586Z,1.90
2022-12-20T07:26:15.737Z,1.85
2022-12-20T07:28:41.891Z,1.90
2022-12-20T07:31:08.035Z,1.75
2022-12-20T07:33:34.140Z,2.10
2022-12-20T07:36:00.281Z,1.95
2022-12-20T07:38:26.411Z,2.28
2022-12-20T07:40:52.557Z,2.50
2022-12-20T07:43:18.676Z,2.20
2022-12-20T07:45:44.819Z,2.50
2022-12-20T07:48:16.025Z,1.85
2022-12-20T07:50:46.070Z,2.05
2022-12-20T07:53:12.330Z,1.60
2022-12-20T07:55:40.507Z,1.90
2022-12-20T07:58:06.844Z,1.48
2022-12-20T08:00:32.951Z,2.17
2022-12-20T08:02:59.269Z,1.83
2022-12-20T08:05:25.559Z,2.08
2022-12-20T08:07:58.478Z,2.03
2022-12-20T08:10:25.284Z,1.63
2022-12-20T08:12:51.420Z,1.80
2022-12-20T08:15:17.522Z,2.05
2022-12-20T08:17:43.654Z,1.55
2022-12-20T08:20:09.780Z,1.92
2022-12-20T08:22:35.912Z,1.80
2022-12-20T08:25:02.034Z,1.90
2022-12-20T08:27:28.151Z,1.95
2022-12-20T08:29:54.294Z,1.48
2022-12-20T08:32:20.412Z,2.50
2022-12-20T08:34:46.780Z,1.60
2022-12-20T08:37:15.131Z,2.20
2022-12-20T08:39:41.521Z,2.50
2022-12-20T08:42:07.656Z,2.30
2022-12-20T08:44:33.778Z,2.58
2022-12-20T08:46:59.900Z,2.10
2022-12-20T08:49:26.027Z,2.13
2022-12-20T08:51:52.239Z,2.17
2022-12-20T08:54:18.429Z,1.90
2022-12-20T08:56:44.597Z,1.85
2022-12-20T08:59:10.788Z,1.90
2022-12-20T09:01:37.015Z,1.75
2022-12-20T09:04:03.270Z,2.38
2022-12-20T09:06:29.431Z,2.38
2022-12-20T09:08:55.551Z,2.20
2022-12-20T09:11:21.720Z,2.13
2022-12-20T09:13:47.835Z,2.25
2022-12-20T09:16:14.119Z,2.63
2022-12-20T09:18:40.365Z,2.53
2022-12-20T09:21:06.798Z,2.10
2022-12-20T09:23:33.139Z,3.00
2022-12-20T09:25:59.658Z,2.47
2022-12-20T09:28:25.983Z,3.05
2022-12-20T09:30:52.311Z,2.50
2022-12-20T09:33:18.582Z,2.67
2022-12-20T09:35:44.867Z,3.08
2022-12-20T09:38:11.159Z,3.17
2022-12-20T09:40:37.974Z,3.13
2022-12-20T09:43:04.393Z,4.05
2022-12-20T09:45:30.715Z,3.42
2022-12-20T09:47:57.385Z,3.83
2022-12-20T09:50:23.605Z,3.75
2022-12-20T09:52:49.984Z,3.30
2022-12-20T09:55:16.327Z,3.60
2022-12-20T09:57:42.730Z,3.67
2022-12-20T10:00:09.013Z,3.38
2022-12-20T10:02:57.190Z,3.70
2022-12-20T10:05:21.577Z,3.50
2022-12-20T10:07:48.040Z,3.30
2022-12-20T10:10:14.280Z,3.03
2022-12-20T10:12:40.478Z,2.85
2022-12-20T10:15:06.741Z,3.60
2022-12-20T10:17:33.072Z,2.65
2022-12-20T10:20:01.076Z,3.15
2022-12-20T10:22:30.008Z,3.65
2022-12-20T10:24:56.284Z,3.65
2022-12-20T10:27:23.284Z,3.47
2022-12-20T10:29:51.301Z,3.28
2022-12-20T10:32:17.912Z,3.40
2022-12-20T10:34:48.659Z,3.50
2022-12-20T10:37:15.009Z,4.05
2022-12-20T10:39:41.475Z,4.00
2022-12-20T10:42:07.854Z,4.05
2022-12-20T10:44:34.418Z,6.43
2022-12-20T10:47:01.039Z,3.38
2022-12-20T10:49:30.715Z,3.05
2022-12-20T10:51:57.303Z,3.17
2022-12-20T10:54:23.633Z,4.00
2022-12-20T10:56:50.841Z,3.92
2022-12-20T10:59:17.072Z,3.38
2022-12-20T11:01:44.204Z,3.33
2022-12-20T11:04:10.662Z,3.30
2022-12-20T11:06:38.677Z,3.08
2022-12-20T11:09:05.845Z,2.90
2022-12-20T11:11:32.069Z,3.22
2022-12-20T11:13:59.686Z,3.92
2022-12-20T11:16:26.165Z,4.22
2022-12-20T11:18:52.577Z,3.10
2022-12-20T11:21:25.901Z,3.78
2022-12-20T11:23:55.120Z,3.38
2022-12-20T11:26:23.009Z,3.00
2022-12-20T11:28:49.448Z,2.95
2022-12-20T11:31:19.296Z,2.83
2022-12-20T11:33:45.963Z,3.10
2022-12-20T11:36:12.898Z,2.70
2022-12-20T11:38:39.423Z,3.25
2022-12-20T11:41:05.720Z,2.95
2022-12-20T11:43:32.372Z,3.85
2022-12-20T11:45:58.693Z,3.13
2022-12-20T11:48:24.919Z,2.92
2022-12-20T11:50:51.213Z,3.70
2022-12-20T11:53:17.459Z,3.53
2022-12-20T11:55:43.793Z,3.00
2022-12-20T11:58:18.461Z,2.78
2022-12-20T12:00:45.564Z,3.35
2022-12-20T12:03:11.848Z,3.22
2022-12-20T12:05:38.259Z,2.38
2022-12-20T12:08:04.496Z,2.55
2022-12-20T12:10:30.719Z,2.70
2022-12-20T12:12:56.987Z,3.08
2022-12-20T12:15:23.484Z,2.88
2022-12-20T12:17:49.808Z,3.33
2022-12-20T12:20:15.962Z,3.17
2022-12-20T12:22:42.455Z,3.17
2022-12-20T12:25:08.826Z,3.13
2022-12-20T12:27:34.994Z,3.45
2022-12-20T12:30:01.346Z,3.00
2022-12-20T12:32:27.734Z,4.13
2022-12-20T12:34:54.022Z,3.30
2022-12-20T12:37:20.439Z,2.90
2022-12-20T12:39:46.870Z,3.00
2022-12-20T12:42:13.066Z,2.90
2022-12-20T12:44:39.444Z,3.95
2022-12-20T12:47:05.589Z,3.65
2022-12-20T12:49:31.864Z,4.07
2022-12-20T12:51:58.117Z,3.45
2022-12-20T12:54:24.478Z,3.17
2022-12-20T12:56:50.719Z,2.90
2022-12-20T12:59:17.027Z,3.03
2022-12-20T13:01:43.560Z,2.90
2022-12-20T13:04:09.919Z,3.30
2022-12-20T13:06:36.530Z,3.05
2022-12-20T13:09:02.708Z,2.17
2022-12-20T13:11:28.941Z,2.40
2022-12-20T13:13:55.534Z,2.60
2022-12-20T13:16:31.314Z,2.65
2022-12-20T13:19:08.130Z,2.47
2022-12-20T13:21:34.365Z,3.83
2022-12-20T13:24:01.726Z,2.80
2022-12-20T13:26:28.002Z,3.38
2022-12-20T13:28:54.357Z,2.92
2022-12-20T13:31:20.759Z,3.25
2022-12-20T13:33:47.206Z,2.60
2022-12-20T13:36:13.367Z,3.60
2022-12-20T13:38:39.536Z,4.22
2022-12-20T13:41:05.810Z,3.78
2022-12-20T13:43:31.991Z,3.80
2022-12-20T13:45:58.327Z,3.33
2022-12-20T13:48:24.502Z,4.35
2022-12-20T13:50:50.681Z,4.40
2022-12-20T13:53:17.119Z,4.05
2022-12-20T13:55:43.258Z,5.45
2022-12-20T13:58:09.451Z,4.88
2022-12-20T14:00:35.583Z,4.18
2022-12-20T14:03:01.813Z,4.78
2022-12-20T14:05:28.389Z,3.80
2022-12-20T14:07:54.794Z,4.00
2022-12-20T14:10:21.171Z,3.03
2022-12-20T14:12:47.714Z,5.10
2022-12-20T14:15:14.068Z,4.13
2022-12-20T14:17:44.633Z,3.63
2022-12-20T14:20:11.374Z,3.40
2022-12-20T14:22:37.578Z,3.97
2022-12-20T14:25:03.895Z,4.95
2022-12-20T14:27:30.169Z,3.53
2022-12-20T14:32:37.434Z,4.10
2022-12-20T14:43:06.343Z,4.30
2022-12-20T14:48:13.578Z,4.60
2022-12-20T14:53:22.429Z,5.15
2022-12-20T15:11:50.403Z,4.60
2022-12-20T15:30:17.584Z,4.93
2022-12-20T15:38:04.501Z,5.80
2022-12-20T15:40:31.134Z,9.80
2022-12-20T15:45:37.673Z,6.72
2022-12-20T15:48:05.794Z,7.13
2022-12-20T16:01:20.867Z,5.05
2022-12-20T16:14:29.592Z,6.63
2022-12-20T16:17:00.390Z,6.20
2022-12-20T16:19:27.226Z,5.13
2022-12-20T16:24:35.043Z,5.47
2022-12-20T16:27:02.120Z,5.70
2022-12-20T16:29:29.385Z,5.90
2022-12-20T16:31:59.537Z,5.25
2022-12-20T16:34:26.893Z,5.53
2022-12-20T16:42:13.629Z,5.65
2022-12-20T16:50:04.908Z,5.03
2022-12-20T16:52:32.217Z,5.72
2022-12-20T17:05:41.557Z,5.75
2022-12-20T17:16:12.174Z,6.38
2022-12-20T17:18:39.554Z,6.45
2022-12-20T17:21:06.915Z,6.60
2022-12-20T17:23:39.775Z,6.47
2022-12-20T17:28:49.069Z,5.95
2022-12-20T17:33:56.561Z,5.70
2022-12-20T17:36:22.943Z,5.57
2022-12-20T17:38:50.448Z,5.50
2022-12-20T17:41:17.191Z,6.40
2022-12-20T17:43:44.227Z,6.47
2022-12-20T17:46:10.818Z,10.65
2022-12-20T17:51:28.681Z,6.75
2022-12-20T17:53:55.219Z,6.95
2022-12-20T17:59:03.238Z,6.90
2022-12-20T18:09:30.853Z,10.15
2022-12-20T18:20:01.315Z,7.60
2022-12-20T18:22:28.008Z,8.80
2022-12-20T18:25:03.217Z,7.55
2022-12-20T18:27:37.375Z,7.82
2022-12-20T18:32:43.891Z,10.15
2022-12-20T18:35:22.137Z,9.48
2022-12-20T18:37:48.910Z,8.68
2022-12-20T18:40:19.593Z,9.93
2022-12-20T18:42:46.378Z,9.40
2022-12-20T18:47:53.586Z,9.02
2022-12-20T18:50:20.498Z,9.25
2022-12-20T18:52:47.020Z,8.32
2022-12-20T18:55:15.017Z,8.57
2022-12-20T18:57:53.032Z,8.95
2022-12-20T19:00:19.332Z,8.75
2022-12-20T19:05:37.272Z,8.52
2022-12-20T19:08:04.203Z,7.80
2022-12-20T19:10:32.421Z,6.70
2022-12-20T19:13:05.271Z,5.80
2022-12-20T19:15:34.388Z,5.78
2022-12-20T19:18:01.411Z,5.50
2022-12-20T19:20:29.485Z,5.50
2022-12-20T19:23:03.721Z,5.20
2022-12-20T19:25:30.037Z,5.20
2022-12-20T19:27:58.276Z,6.30
2022-12-20T19:35:55.529Z,5.80
2022-12-20T19:38:23.814Z,7.32
2022-12-20T19:40:51.353Z,6.20
2022-12-20T19:43:20.988Z,5.30
2022-12-20T19:45:47.861Z,5.43
2022-12-20T19:48:14.497Z,5.05
2022-12-20T19:50:41.464Z,5.50
2022-12-20T19:53:08.498Z,5.55
2022-12-20T19:55:34.951Z,6.07
2022-12-20T19:58:02.486Z,5.55
2022-12-20T20:00:28.879Z,5.32
2022-12-20T20:05:35.937Z,5.13
2022-12-20T20:08:04.563Z,5.70
2022-12-20T20:10:36.323Z,5.53
2022-12-20T20:13:03.540Z,5.55
2022-12-20T20:15:30.516Z,5.97
2022-12-20T20:17:57.156Z,5.85
2022-12-20T20:20:28.060Z,5.85
2022-12-20T20:25:34.856Z,6.05
2022-12-20T20:28:02.131Z,5.00
